Time;durP1;ratioP1;P1;durP2;ratioP2;P2;SDS_P1;SDS_P2;PMS_P1;PMS_P2;Temp;Humidity;BMP_temperature;BMP_pressure;BME280_temperature;BME280_humidity;BME280_pressure;Samples;Min_cycle;Max_cycle;Signal;HPM_P1;HPM_P2
2022/02/26 00:00:09;;;;;;;22.13;14.60;;;;;;;11.12;65.17;101344.81;5039539;27;102608;-55
2022/02/26 00:02:36;;;;;;;21.00;13.63;;;;;;;11.12;65.26;101349.47;5049679;27;102421;-55
2022/02/26 00:05:03;;;;;;;22.48;14.35;;;;;;;11.11;65.78;101356.81;5045923;27;103926;-55
2022/02/26 00:07:30;;;;;;;20.88;14.70;;;;;;;11.12;65.57;101358.44;5056640;27;102175;-55
2022/02/26 00:09:56;;;;;;;22.10;14.05;;;;;;;11.12;65.67;101363.09;5055071;27;102070;-55
2022/02/26 00:12:22;;;;;;;22.10;14.38;;;;;;;11.11;65.60;101369.59;5055971;27;102532;-55
2022/02/26 00:14:49;;;;;;;22.48;15.43;;;;;;;11.11;65.32;101359.53;5048193;27;104127;-55
2022/02/26 00:17:17;;;;;;;21.00;14.52;;;;;;;11.12;65.58;101373.97;5041624;27;102431;-55
2022/02/26 00:19:43;;;;;;;21.13;14.70;;;;;;;11.11;65.84;101370.44;5041600;27;103014;-55
2022/02/26 00:22:10;;;;;;;23.88;14.98;;;;;;;11.11;65.80;101373.16;5041577;27;102174;-55
2022/02/26 00:24:36;;;;;;;23.05;14.50;;;;;;;11.11;65.14;101378.59;5052253;27;103892;-55
2022/02/26 00:27:03;;;;;;;20.48;14.57;;;;;;;11.10;65.55;101382.38;5038823;27;102509;-55
2022/02/26 00:29:32;;;;;;;20.08;13.95;;;;;;;11.11;65.68;101384.06;5061270;27;103121;-55
2022/02/26 00:31:58;;;;;;;19.98;14.52;;;;;;;11.10;65.74;101382.38;5040883;27;102560;-55
2022/02/26 00:34:26;;;;;;;23.38;14.82;;;;;;;11.11;65.69;101394.09;5034454;27;104163;-55
2022/02/26 00:36:52;;;;;;;22.25;14.98;;;;;;;11.10;65.61;101393.28;5046356;27;103302;-55
2022/02/26 00:39:18;;;;;;;19.80;13.75;;;;;;;11.10;65.52;101393.28;5040465;27;102352;-55
2022/02/26 00:41:45;;;;;;;20.52;13.75;;;;;;;11.10;65.40;101393.28;5031432;27;102552;-55
2022/02/26 00:44:11;;;;;;;20.70;14.73;;;;;;;11.09;65.53;101391.66;5029595;27;103976;-55
2022/02/26 00:46:38;;;;;;;19.98;13.85;;;;;;;11.09;65.40;101391.66;5042227;27;102508;-55
2022/02/26 00:51:51;;;;;;;18.60;13.85;;;;;;;11.10;65.46;101393.28;5051027;27;102571;-55
2022/02/26 00:54:17;;;;;;;21.45;14.63;;;;;;;11.10;65.48;101398.72;5059322;27;103923;-55
2022/02/26 00:56:43;;;;;;;21.98;14.55;;;;;;;11.10;65.21;101396.00;5033501;27;102441;-55
2022/02/26 00:59:10;;;;;;;19.90;13.88;;;;;;;11.11;65.57;101394.09;5048292;27;103580;-55
2022/02/26 01:01:37;;;;;;;20.65;14.52;;;;;;;11.09;65.19;101394.38;5052037;27;102745;-55
2022/02/26 01:04:05;;;;;;;19.63;13.27;;;;;;;11.10;65.22;101387.84;5062042;27;103867;-55
2022/02/26 01:06:32;;;;;;;20.65;13.85;;;;;;;11.09;65.08;101386.19;5052094;27;102231;-55
2022/02/26 01:09:00;;;;;;;19.15;12.63;;;;;;;11.09;65.48;101386.19;5051362;27;102492;-55
2022/02/26 01:11:27;;;;;;;21.15;13.98;;;;;;;11.10;65.57;101393.28;5051530;27;102834;-55
2022/02/26 01:13:53;;;;;;;21.25;14.27;;;;;;;11.09;65.58;101396.28;5054297;27;103885;-55
2022/02/26 01:16:19;;;;;;;20.48;13.43;;;;;;;11.09;65.43;101399.00;5052893;27;102472;-55
2022/02/26 01:18:46;;;;;;;20.85;13.43;;;;;;;11.09;65.59;101402.53;5031869;27;102318;-55
2022/02/26 01:21:12;;;;;;;18.48;13.43;;;;;;;11.09;65.54;101396.28;5031051;27;107448;-55
2022/02/26 01:23:38;;;;;;;19.08;13.13;;;;;;;11.09;65.63;101391.66;5034055;27;103980;-55
2022/02/26 01:26:06;;;;;;;19.90;13.43;;;;;;;11.09;65.68;101390.84;5044603;27;102388;-55
2022/02/26 01:28:33;;;;;;;20.98;13.90;;;;;;;11.08;65.38;101406.34;5043789;27;102427;-55
2022/02/26 01:30:59;;;;;;;19.52;13.18;;;;;;;11.08;65.25;101395.47;5040704;27;102394;-55
2022/02/26 01:33:25;;;;;;;20.48;13.85;;;;;;;11.10;65.39;101392.47;5053244;27;103885;-55
2022/02/26 01:35:51;;;;;;;20.40;13.63;;;;;;;11.08;65.21;101392.75;5051182;27;102361;-55
2022/02/26 01:38:17;;;;;;;19.95;13.20;;;;;;;11.07;65.41;101389.19;5054867;27;102287;-55
2022/02/26 01:40:44;;;;;;;19.15;13.27;;;;;;;11.08;65.70;101403.63;5060264;27;102414;-55
2022/02/26 01:43:11;;;;;;;22.05;13.40;;;;;;;11.09;65.25;101407.19;5048899;27;103910;-55
2022/02/26 01:45:37;;;;;;;19.75;13.70;;;;;;;11.08;65.54;101403.63;5049436;27;102666;-55
2022/02/26 01:48:04;;;;;;;18.15;13.02;;;;;;;11.09;65.56;101407.19;5030364;27;102465;-55
2022/02/26 01:50:31;;;;;;;19.23;12.73;;;;;;;11.08;65.13;101419.97;5031854;27;103370;-54
2022/02/26 01:52:58;;;;;;;21.65;12.95;;;;;;;11.07;65.27;101411.00;5050705;27;104166;-55
2022/02/26 01:55:25;;;;;;;19.55;13.73;;;;;;;11.08;65.33;101411.81;5051019;27;102478;-55
2022/02/26 01:57:51;;;;;;;19.75;13.20;;;;;;;11.08;65.54;101406.34;5053582;27;102784;-55
2022/02/26 02:00:19;;;;;;;18.67;13.95;;;;;;;11.08;65.18;101411.81;5050454;27;102719;-55
2022/02/26 02:02:45;;;;;;;19.80;13.63;;;;;;;11.07;65.56;101415.59;5043865;27;103964;-55
2022/02/26 02:05:12;;;;;;;18.77;13.57;;;;;;;11.07;65.83;101415.59;5029360;27;102661;-55
2022/02/26 02:07:38;;;;;;;19.95;13.70;;;;;;;11.07;65.59;101410.13;5033144;27;102349;-55
2022/02/26 02:10:05;;;;;;;19.92;13.52;;;;;;;11.08;65.62;101414.53;5049511;27;102187;-55
2022/02/26 02:12:32;;;;;;;19.10;13.23;;;;;;;11.07;65.42;101411.00;5033485;27;104158;-55
2022/02/26 02:14:58;;;;;;;19.48;13.20;;;;;;;11.09;65.19;101423.53;5047910;27;102666;-55
2022/02/26 02:17:26;;;;;;;19.05;13.65;;;;;;;11.08;65.78;101422.69;5061395;27;103175;-55
2022/02/26 02:19:52;;;;;;;16.67;12.75;;;;;;;11.07;65.12;101421.88;5030947;27;102258;-55
2022/02/26 02:22:20;;;;;;;19.52;13.85;;;;;;;11.07;65.54;101423.75;5030412;27;103986;-55
2022/02/26 02:24:47;;;;;;;18.38;12.38;;;;;;;11.08;65.54;101422.69;5027574;27;102476;-55
2022/02/26 02:27:16;;;;;;;20.85;13.35;;;;;;;11.07;65.09;101418.31;5034543;27;102451;-55
2022/02/26 02:29:43;;;;;;;18.20;13.07;;;;;;;11.06;65.51;101424.84;5043960;27;102602;-55
2022/02/26 02:32:09;;;;;;;18.25;13.07;;;;;;;11.07;65.74;101431.94;5035976;27;103966;-55
2022/02/26 02:34:36;;;;;;;21.67;14.57;;;;;;;11.06;65.32;101435.75;5050444;27;102478;-55
2022/02/26 02:37:02;;;;;;;19.30;12.82;;;;;;;11.05;65.53;101434.94;5051890;27;102775;-55
2022/02/26 02:39:30;;;;;;;18.52;13.02;;;;;;;11.06;65.49;101433.84;5029972;28;102772;-55
2022/02/26 02:41:56;;;;;;;17.27;12.82;;;;;;;11.05;65.36;101440.38;5035846;27;104036;-55
2022/02/26 02:44:23;;;;;;;17.92;13.10;;;;;;;11.06;65.18;101438.47;5041667;27;102502;-55
2022/02/26 02:46:49;;;;;;;20.17;12.73;;;;;;;11.06;65.49;101443.91;5029931;27;102319;-55
2022/02/26 02:49:15;;;;;;;19.13;13.50;;;;;;;11.05;65.19;101445.81;5048682;27;102111;-55
2022/02/26 02:51:42;;;;;;;17.73;12.45;;;;;;;11.06;65.52;101452.09;5040721;27;103392;-55
2022/02/26 02:54:08;;;;;;;17.30;12.07;;;;;;;11.06;65.62;101454.81;5029685;27;102475;-55
2022/02/26 02:56:35;;;;;;;17.85;12.45;;;;;;;11.06;65.31;101465.72;5028223;27;102082;-55
2022/02/26 02:59:02;;;;;;;16.55;12.80;;;;;;;11.06;65.40;101465.72;5039000;27;102479;-55
2022/02/26 03:01:28;;;;;;;17.52;12.70;;;;;;;11.05;65.55;101473.06;5056617;27;103984;-55
2022/02/26 03:03:55;;;;;;;16.15;12.38;;;;;;;11.06;65.62;101477.41;5045344;27;102381;-55
2022/02/26 03:06:24;;;;;;;17.40;12.68;;;;;;;11.05;65.10;101470.34;5057626;27;102484;-55
2022/02/26 03:08:50;;;;;;;18.33;12.93;;;;;;;11.06;65.48;101468.44;5049698;27;102504;-55
2022/02/26 03:11:19;;;;;;;20.58;13.02;;;;;;;11.05;65.31;101475.78;5046296;27;104118;-55
2022/02/26 03:13:46;;;;;;;15.90;12.13;;;;;;;11.06;65.74;101465.72;5037255;27;102497;-55
2022/02/26 03:16:13;;;;;;;15.05;11.45;;;;;;;11.06;65.44;101484.78;5028525;27;102510;-55
2022/02/26 03:18:46;;;;;;;15.38;12.38;;;;;;;11.05;65.32;101483.13;5028509;27;102369;-55
2022/02/26 03:21:12;;;;;;;17.33;12.13;;;;;;;11.06;65.04;101479.31;5036338;27;104284;-55
2022/02/26 03:23:39;;;;;;;18.27;12.88;;;;;;;11.04;65.19;101482.31;5032157;27;102476;-55
2022/02/26 03:26:05;;;;;;;15.90;12.30;;;;;;;11.04;65.65;101486.94;5030943;27;102468;-55
2022/02/26 03:28:32;;;;;;;17.00;11.80;;;;;;;11.04;65.40;101482.31;5036614;27;102224;-55
2022/02/26 03:30:59;;;;;;;16.52;11.68;;;;;;;11.04;65.23;101486.94;5028870;27;103916;-55
2022/02/26 03:33:27;;;;;;;17.15;12.32;;;;;;;11.04;65.29;101486.94;5043551;27;103116;-55
2022/02/26 03:35:54;;;;;;;16.73;12.30;;;;;;;11.03;65.14;101485.28;5037323;27;102564;-55
2022/02/26 03:38:20;;;;;;;15.60;11.45;;;;;;;11.04;65.57;101493.22;5029388;27;102736;-55
2022/02/26 03:40:46;;;;;;;17.83;11.95;;;;;;;11.04;65.14;101493.22;5025327;27;104092;-55
2022/02/26 03:43:13;;;;;;;16.70;12.77;;;;;;;11.03;64.92;101502.47;5029070;27;102158;-55
2022/02/26 03:45:39;;;;;;;15.20;11.88;;;;;;;11.04;65.59;101497.84;5027658;27;102243;-55
2022/02/26 03:48:07;;;;;;;14.68;11.57;;;;;;;11.04;65.06;101503.28;5028811;27;102261;-55
2022/02/26 03:50:33;;;;;;;16.60;11.90;;;;;;;11.03;65.38;101502.47;5031588;27;103925;-55
2022/02/26 03:52:59;;;;;;;16.35;12.50;;;;;;;11.03;65.65;101498.91;5032224;27;102498;-55
2022/02/26 03:55:26;;;;;;;15.40;12.13;;;;;;;11.03;65.27;101501.63;5029269;27;102568;-55
2022/02/26 03:57:52;;;;;;;19.58;13.52;;;;;;;11.00;64.70;101502.16;5021586;27;102516;-60
2022/02/26 04:00:19;;;;;;;25.52;17.85;;;;;;;10.58;59.13;101505.44;5027269;27;104044;-54
2022/02/26 04:02:46;;;;;;;30.45;18.58;;;;;;;10.19;59.00;101508.13;5021060;27;102639;-54
2022/02/26 04:05:13;;;;;;;31.70;18.13;;;;;;;9.78;57.00;101506.69;5022919;27;102230;-54
2022/02/26 04:07:40;;;;;;;21.83;14.63;;;;;;;9.81;56.55;101504.28;5019392;27;102550;-53
2022/02/26 04:10:08;;;;;;;21.27;14.38;;;;;;;9.70;55.80;101494.31;5025744;28;104165;-53
2022/02/26 04:12:35;;;;;;;21.58;14.63;;;;;;;9.50;53.06;101493.97;5026585;28;102375;-53
2022/02/26 04:15:02;;;;;;;28.05;16.73;;;;;;;9.31;55.15;101518.63;5050830;27;102302;-54
2022/02/26 04:17:32;;;;;;;26.25;16.48;;;;;;;9.23;53.63;101521.75;5043801;27;102514;-53
2022/02/26 04:19:58;;;;;;;28.05;17.15;;;;;;;9.47;55.25;101524.34;5036403;27;103726;-53
2022/02/26 04:22:26;;;;;;;31.05;15.43;;;;;;;9.64;56.20;101533.34;5028818;27;102510;-53
2022/02/26 04:24:52;;;;;;;28.73;15.05;;;;;;;9.68;57.09;101542.66;5026554;28;102838;-54
2022/02/26 04:27:18;;;;;;;34.53;16.48;;;;;;;9.71;56.43;101536.72;5042982;27;102965;-55
2022/02/26 04:29:44;;;;;;;33.95;16.48;;;;;;;9.74;57.06;101549.84;5045865;27;103736;-54
2022/02/26 04:32:10;;;;;;;29.63;16.50;;;;;;;9.69;56.88;101557.06;5047361;27;102429;-54
2022/02/26 04:34:37;;;;;;;27.33;16.67;;;;;;;9.67;56.97;101554.59;5047722;27;102036;-53
2022/02/26 04:37:03;;;;;;;23.65;18.05;;;;;;;9.57;57.79;101559.84;5060838;27;102837;-67
2022/02/26 04:39:32;;;;;;;37.92;22.02;;;;;;;9.39;56.61;101569.03;5046957;27;104184;-53
2022/02/26 04:41:58;;;;;;;30.05;20.92;;;;;;;9.38;57.14;101562.78;5047290;27;102507;-53
2022/02/26 04:44:25;;;;;;;28.52;20.40;;;;;;;9.41;57.22;101563.34;5023735;27;102422;-53
2022/02/26 04:46:51;;;;;;;30.40;20.70;;;;;;;9.42;57.56;101578.59;5029929;27;102615;-53
2022/02/26 04:49:17;;;;;;;30.65;20.42;;;;;;;9.39;56.52;101571.75;5033439;27;103814;-54
2022/02/26 04:51:43;;;;;;;32.58;20.23;;;;;;;9.42;57.77;101573.16;5019161;27;102346;-54
2022/02/26 04:54:12;;;;;;;32.80;19.05;;;;;;;9.48;57.89;101572.16;5029683;27;102551;-54
2022/02/26 04:56:39;;;;;;;29.80;18.80;;;;;;;9.52;57.93;101571.47;5033872;27;102590;-54
2022/02/26 04:59:06;;;;;;;30.77;19.60;;;;;;;9.56;58.77;101574.50;5049440;27;103775;-54
2022/02/26 05:01:32;;;;;;;29.63;17.70;;;;;;;9.59;58.39;101568.56;5056353;27;102646;-54
2022/02/26 05:03:58;;;;;;;30.30;17.98;;;;;;;9.59;58.56;101568.56;5050887;27;102287;-54
2022/02/26 05:06:25;;;;;;;28.52;17.80;;;;;;;9.61;58.74;101583.56;5047972;27;102165;-54
2022/02/26 05:08:51;;;;;;;25.88;17.00;;;;;;;9.62;58.86;101581.66;5032625;27;103958;-54
2022/02/26 05:11:18;;;;;;;28.25;18.25;;;;;;;9.64;59.28;101593.13;5034007;27;102537;-54
2022/02/26 05:13:51;;;;;;;25.42;16.45;;;;;;;9.67;59.54;101586.41;5024954;27;102428;-54
2022/02/26 05:16:18;;;;;;;24.88;17.45;;;;;;;9.68;59.72;101580.72;5030412;27;103172;-54
2022/02/26 05:18:44;;;;;;;23.33;16.90;;;;;;;9.69;59.62;101585.06;5029732;27;103851;-54
2022/02/26 05:21:16;;;;;;;26.48;17.35;;;;;;;9.73;59.62;101601.72;5029968;27;102901;-54
2022/02/26 05:23:43;;;;;;;25.63;16.92;;;;;;;9.74;59.66;101593.34;5034577;27;102040;-54
2022/02/26 05:26:10;;;;;;;23.70;16.45;;;;;;;9.76;60.28;101604.78;5036346;27;102314;-54
2022/02/26 05:28:37;;;;;;;24.52;17.15;;;;;;;9.79;60.47;101601.56;5035634;27;103884;-54
2022/02/26 05:31:04;;;;;;;27.67;17.15;;;;;;;9.80;60.26;101607.81;5039628;27;102171;-54
2022/02/26 05:33:31;;;;;;;22.90;16.83;;;;;;;9.81;60.75;101615.75;5035731;27;102204;-54
2022/02/26 05:35:58;;;;;;;25.30;16.27;;;;;;;9.84;60.97;101609.84;5033483;27;102436;-55
2022/02/26 05:38:24;;;;;;;26.77;16.45;;;;;;;9.85;61.10;101616.91;5030080;27;103833;-54
2022/02/26 05:40:50;;;;;;;25.83;15.43;;;;;;;9.89;61.07;101624.59;5036570;27;102192;-54
2022/02/26 05:43:17;;;;;;;25.48;15.65;;;;;;;9.90;61.24;101637.91;5033460;27;105287;-54
2022/02/26 05:45:44;;;;;;;24.75;16.13;;;;;;;9.92;61.00;101633.06;5024687;27;102544;-54
2022/02/26 05:48:12;;;;;;;24.23;15.65;;;;;;;9.93;61.01;101633.91;5027350;27;103754;-54
2022/02/26 05:50:38;;;;;;;25.40;16.25;;;;;;;9.95;61.71;101626.31;5039563;27;102575;-54
2022/02/26 05:53:05;;;;;;;21.20;16.17;;;;;;;9.95;61.58;101626.31;5032746;27;102383;-54
2022/02/26 05:55:32;;;;;;;25.02;16.10;;;;;;;9.97;61.56;101630.44;5043908;27;102635;-54
2022/02/26 05:57:59;;;;;;;23.25;15.13;;;;;;;9.98;61.23;101629.34;5037869;27;104975;-54
2022/02/26 06:00:25;;;;;;;20.23;15.02;;;;;;;9.99;61.75;101643.78;5032044;27;102472;-55
2022/02/26 06:02:52;;;;;;;21.08;14.38;;;;;;;10.00;61.49;101632.66;5025928;27;102308;-54
2022/02/26 06:05:19;;;;;;;20.48;14.70;;;;;;;10.00;61.34;101646.25;5031471;27;102867;-54
2022/02/26 06:07:45;;;;;;;20.65;15.23;;;;;;;10.00;61.45;101637.28;5029551;27;102533;-54
2022/02/26 06:10:12;;;;;;;19.52;14.40;;;;;;;10.01;61.56;101652.53;5041286;27;105252;-55
2022/02/26 06:12:40;;;;;;;18.60;13.63;;;;;;;10.02;61.65;101660.44;5044568;27;102423;-54
2022/02/26 06:15:06;;;;;;;18.50;14.10;;;;;;;10.02;61.35;101660.44;5054325;27;103191;-54
2022/02/26 06:17:36;;;;;;;19.10;14.07;;;;;;;10.03;61.70;101664.81;5036145;27;104062;-54
2022/02/26 06:20:03;;;;;;;19.73;13.93;;;;;;;10.04;61.82;101663.75;5035576;27;102476;-55
2022/02/26 06:22:32;;;;;;;19.35;13.05;;;;;;;9.96;61.30;101666.03;5053350;27;102391;-54
2022/02/26 06:24:58;;;;;;;31.42;15.32;;;;;;;10.07;62.26;101673.31;5065150;27;102683;-54
2022/02/26 06:27:25;;;;;;;40.00;15.85;;;;;;;10.14;62.43;101676.69;5045824;27;104030;-54
2022/02/26 06:29:51;;;;;;;34.80;17.45;;;;;;;10.19;62.47;101676.78;5061010;27;102417;-54
2022/02/26 06:32:17;;;;;;;31.80;16.35;;;;;;;10.21;62.46;101688.25;5056012;27;102200;-54
2022/02/26 06:34:43;;;;;;;34.78;16.42;;;;;;;10.23;62.40;101671.69;5050182;27;102196;-55
2022/02/26 06:37:10;;;;;;;22.58;15.60;;;;;;;10.24;62.26;101684.19;5044510;27;103931;-54
2022/02/26 06:39:37;;;;;;;31.45;16.67;;;;;;;10.25;62.49;101686.72;5030526;27;103779;-54
2022/02/26 06:42:04;;;;;;;30.92;16.50;;;;;;;10.27;62.42;101691.91;5040183;27;102356;-54
2022/02/26 06:44:30;;;;;;;26.88;15.55;;;;;;;10.27;62.11;101686.47;5050263;27;102570;-55
2022/02/26 06:46:56;;;;;;;22.75;15.15;;;;;;;10.30;61.86;101694.13;5040823;27;104153;-54
2022/02/26 06:49:22;;;;;;;25.50;15.30;;;;;;;10.30;62.61;101689.53;5051148;27;102723;-55
2022/02/26 06:51:49;;;;;;;24.85;15.05;;;;;;;10.33;61.96;101699.09;5049135;27;102426;-55
2022/02/26 06:54:15;;;;;;;24.65;15.75;;;;;;;10.33;62.18;101694.47;5035106;27;102237;-54
2022/02/26 06:56:42;;;;;;;23.85;15.65;;;;;;;10.35;62.54;101702.41;5047161;27;103878;-55
2022/02/26 06:59:08;;;;;;;23.13;14.88;;;;;;;10.36;62.46;101695.88;5048153;27;102531;-54
2022/02/26 07:01:35;;;;;;;26.63;15.23;;;;;;;10.38;62.47;101703.78;5048008;27;102317;-56
2022/02/26 07:04:01;;;;;;;22.13;15.07;;;;;;;10.38;62.30;101695.63;5033651;27;102363;-55
2022/02/26 07:06:27;;;;;;;21.85;14.35;;;;;;;10.38;62.43;101692.91;5052980;27;104078;-54
2022/02/26 07:08:53;;;;;;;18.73;14.85;;;;;;;10.40;62.33;101704.38;5052290;27;102558;-54
2022/02/26 07:11:20;;;;;;;20.30;14.18;;;;;;;10.41;62.25;101711.47;5059076;27;102583;-55
2022/02/26 07:13:47;;;;;;;18.77;13.73;;;;;;;10.43;62.44;101703.91;5060043;27;102334;-54
2022/02/26 07:16:14;;;;;;;22.05;14.90;;;;;;;10.44;62.33;101716.44;5047995;27;103892;-54
2022/02/26 07:18:40;;;;;;;20.98;14.38;;;;;;;10.43;62.51;101710.16;5031108;27;102346;-55
2022/02/26 07:21:06;;;;;;;27.65;15.00;;;;;;;10.45;62.65;101704.47;5028985;27;102182;-55
2022/02/26 07:23:33;;;;;;;19.55;14.35;;;;;;;10.46;62.59;101708.84;5039845;27;102541;-54
2022/02/26 07:26:00;;;;;;;19.92;14.02;;;;;;;10.46;62.69;101703.41;5028603;27;103947;-54
2022/02/26 07:28:27;;;;;;;21.75;14.38;;;;;;;10.47;62.34;101705.06;5027565;27;102434;-55
2022/02/26 07:30:55;;;;;;;23.10;13.95;;;;;;;10.47;62.50;101705.88;5029591;27;102745;-55
2022/02/26 07:33:21;;;;;;;21.45;13.95;;;;;;;10.49;62.56;101713.78;5029568;27;102674;-54
2022/02/26 07:35:48;;;;;;;18.50;14.13;;;;;;;10.52;62.86;101713.28;5034872;27;104017;-54
2022/02/26 07:38:14;;;;;;;21.77;14.35;;;;;;;10.52;62.76;101718.72;5035396;27;102214;-55
2022/02/26 07:40:43;;;;;;;19.50;13.73;;;;;;;10.53;62.73;101717.66;5032628;27;102542;-55
2022/02/26 07:43:09;;;;;;;19.88;14.00;;;;;;;10.54;62.42;101722.88;5051121;27;102222;-54
2022/02/26 07:45:36;;;;;;;19.45;14.32;;;;;;;10.54;62.42;101720.16;5054972;27;103719;-55
2022/02/26 07:48:04;;;;;;;15.95;13.32;;;;;;;10.55;62.55;101718.25;5039525;27;102269;-54
2022/02/26 07:50:31;;;;;;;15.90;13.15;;;;;;;10.55;62.88;101713.63;5026746;27;102678;-55
2022/02/26 07:52:57;;;;;;;17.45;13.55;;;;;;;10.55;62.81;101716.34;5029389;27;102296;-54
2022/02/26 07:55:24;;;;;;;18.65;14.15;;;;;;;10.57;62.89;101713.41;5035717;27;103927;-55
2022/02/26 07:57:51;;;;;;;17.42;12.80;;;;;;;10.57;62.65;101716.13;5060799;27;102463;-54
2022/02/26 08:00:17;;;;;;;19.30;13.43;;;;;;;10.58;62.99;101725.91;5044651;27;102344;-55
2022/02/26 08:02:44;;;;;;;18.90;13.10;;;;;;;10.59;62.90;101727.56;5041418;27;102589;-55
2022/02/26 08:05:12;;;;;;;18.30;13.60;;;;;;;10.59;63.01;101727.56;5020134;27;104048;-54
2022/02/26 08:07:38;;;;;;;21.05;14.13;;;;;;;10.61;62.72;101727.34;5027793;28;102740;-55
2022/02/26 08:10:05;;;;;;;18.75;13.60;;;;;;;10.62;62.69;101727.06;5031472;27;102206;-55
2022/02/26 08:12:32;;;;;;;11.47;9.73;;;;;;;10.63;63.00;101719.72;5049660;27;102387;-54
2022/02/26 08:14:59;;;;;;;16.80;12.85;;;;;;;10.63;63.16;101719.72;5048288;27;104012;-54
2022/02/26 08:17:25;;;;;;;17.40;13.90;;;;;;;10.64;62.88;101722.22;5044304;27;102392;-55
2022/02/26 08:19:52;;;;;;;15.38;12.63;;;;;;;10.66;62.66;101730.13;5031960;27;102480;-54
2022/02/26 08:22:19;;;;;;;18.67;13.88;;;;;;;10.65;62.70;101737.47;5059911;27;102431;-54
2022/02/26 08:24:46;;;;;;;17.45;13.55;;;;;;;10.66;62.32;101735.56;5043703;27;103919;-54
2022/02/26 08:27:13;;;;;;;17.15;13.55;;;;;;;10.68;63.03;101730.72;5029446;27;102160;-54
2022/02/26 08:29:39;;;;;;;16.70;12.85;;;;;;;10.68;62.82;101734.25;5048400;27;102537;-54
2022/02/26 08:32:07;;;;;;;15.68;13.40;;;;;;;10.70;62.63;101737.53;5045100;27;102387;-55
2022/02/26 08:34:33;;;;;;;18.15;13.57;;;;;;;10.72;63.18;101734.59;5051907;27;103868;-55
2022/02/26 08:37:00;;;;;;;16.40;12.68;;;;;;;10.71;63.11;101733.78;5051162;27;102612;-55
2022/02/26 08:39:29;;;;;;;20.50;13.55;;;;;;;10.73;62.75;101736.22;5044437;27;102914;-55
2022/02/26 08:41:55;;;;;;;17.02;13.35;;;;;;;10.73;62.98;101733.50;5030629;27;102403;-55
2022/02/26 08:44:22;;;;;;;16.13;13.48;;;;;;;10.73;62.95;101731.59;5037225;27;103906;-55
2022/02/26 08:46:48;;;;;;;16.60;13.80;;;;;;;10.74;63.24;101733.25;5038389;27;102496;-54
2022/02/26 08:49:14;;;;;;;15.18;11.82;;;;;;;10.74;62.81;101735.97;5030728;27;102430;-55
2022/02/26 08:51:41;;;;;;;16.63;12.18;;;;;;;10.74;62.98;101738.69;5033905;27;102448;-55
2022/02/26 08:54:07;;;;;;;15.93;13.05;;;;;;;10.75;62.92;101729.47;5041540;27;103908;-55
2022/02/26 08:56:35;;;;;;;18.02;13.98;;;;;;;10.77;63.06;101740.94;5049700;27;102280;-54
2022/02/26 08:59:01;;;;;;;16.63;12.88;;;;;;;10.77;62.87;101737.38;5051124;27;102568;-55
2022/02/26 09:01:28;;;;;;;15.15;12.45;;;;;;;10.79;62.82;101743.44;5042837;27;102252;-55
2022/02/26 09:03:55;;;;;;;14.90;12.32;;;;;;;10.79;62.86;101741.53;5050664;27;103712;-55
2022/02/26 09:06:21;;;;;;;16.55;12.95;;;;;;;10.78;63.15;101741.75;5051891;27;102693;-54
2022/02/26 09:08:47;;;;;;;16.85;13.38;;;;;;;10.79;62.76;101743.44;5057095;27;102692;-54
2022/02/26 09:11:14;;;;;;;16.90;13.00;;;;;;;10.79;62.86;101752.41;5048414;27;102562;-55
2022/02/26 09:13:44;;;;;;;15.32;12.55;;;;;;;10.79;62.83;101752.41;5042907;27;103812;-54
2022/02/26 09:16:11;;;;;;;16.83;12.40;;;;;;;10.80;63.07;101737.72;5041385;27;102383;-55
2022/02/26 09:18:38;;;;;;;16.70;12.45;;;;;;;10.81;62.82;101743.97;5029868;27;102315;-55
2022/02/26 09:21:09;;;;;;;15.30;11.73;;;;;;;10.80;62.60;101743.16;5031217;27;102243;-54
2022/02/26 09:23:36;;;;;;;15.70;12.25;;;;;;;10.80;62.68;101743.16;5029673;27;103846;-54
2022/02/26 09:26:04;;;;;;;17.45;12.45;;;;;;;10.80;62.92;101736.91;5030523;27;102469;-55
2022/02/26 09:28:32;;;;;;;15.07;12.15;;;;;;;10.81;62.91;101733.09;5029735;27;102473;-54
2022/02/26 09:31:00;;;;;;;16.88;12.40;;;;;;;10.81;62.37;101731.19;5044086;27;102563;-55
2022/02/26 09:33:29;;;;;;;15.90;12.10;;;;;;;10.81;62.94;101731.19;5050026;27;104221;-54
2022/02/26 09:35:56;;;;;;;15.48;12.35;;;;;;;10.80;62.56;101729.53;5051842;27;102462;-54
2022/02/26 09:38:22;;;;;;;13.52;11.80;;;;;;;10.82;62.58;101735.59;5057167;27;102379;-54
2022/02/26 09:40:49;;;;;;;15.77;11.60;;;;;;;10.82;62.49;101749.19;5051783;27;102644;-54
2022/02/26 09:43:15;;;;;;;13.88;11.00;;;;;;;10.81;62.38;101739.34;5062069;27;103890;-55
2022/02/26 09:45:41;;;;;;;17.10;11.77;;;;;;;10.82;62.52;101751.09;5035918;27;102257;-54
2022/02/26 09:48:09;;;;;;;15.75;11.52;;;;;;;10.82;62.36;101746.47;5045360;27;102461;-55
2022/02/26 09:50:35;;;;;;;16.98;11.55;;;;;;;10.83;62.53;101752.75;5049367;27;102227;-54
2022/02/26 09:53:01;;;;;;;14.73;11.38;;;;;;;10.83;62.84;101769.91;5034231;27;103906;-55
2022/02/26 09:55:28;;;;;;;14.07;11.60;;;;;;;10.84;62.74;101765.28;5023231;28;102470;-54
2022/02/26 09:57:54;;;;;;;12.38;10.95;;;;;;;10.83;62.65;101769.91;5020521;28;102202;-54
2022/02/26 10:00:21;;;;;;;13.23;10.82;;;;;;;10.84;62.67;101757.09;5037955;27;102781;-55
2022/02/26 10:02:49;;;;;;;14.88;11.13;;;;;;;10.83;62.62;101775.34;5053786;27;103846;-54
2022/02/26 10:05:20;;;;;;;14.90;11.45;;;;;;;10.85;62.63;101766.09;5043048;27;102419;-55
2022/02/26 10:07:50;;;;;;;12.30;10.25;;;;;;;10.83;62.70;101764.47;5049503;27;102530;-55
2022/02/26 10:10:19;;;;;;;13.68;10.82;;;;;;;10.84;62.44;101773.44;5061944;27;102397;-54
2022/02/26 10:12:50;;;;;;;11.75;9.88;;;;;;;10.83;62.72;101764.47;5061208;27;103898;-54
2022/02/26 10:15:22;;;;;;;14.77;10.70;;;;;;;10.85;62.61;101766.09;5054556;27;102231;-54
2022/02/26 10:17:58;;;;;;;12.27;10.88;;;;;;;10.85;62.79;101763.38;5053864;27;102336;-54
2022/02/26 10:20:26;;;;;;;15.20;10.88;;;;;;;10.83;62.75;101759.00;5051760;27;102276;-55
2022/02/26 10:22:54;;;;;;;13.73;10.55;;;;;;;10.86;62.46;101762.31;5048991;27;103125;-55
2022/02/26 10:25:22;;;;;;;11.73;10.30;;;;;;;10.85;62.96;101757.94;5050366;27;102054;-55
2022/02/26 10:27:53;;;;;;;13.18;11.32;;;;;;;10.84;62.79;101762.56;5047071;27;102497;-55
2022/02/26 10:30:25;;;;;;;12.55;10.20;;;;;;;10.85;63.06;101760.66;5030457;27;102366;-55
2022/02/26 10:33:09;;;;;;;14.02;10.05;;;;;;;10.85;62.63;101766.09;5034192;27;103906;-55
2022/02/26 10:35:40;;;;;;;12.07;10.10;;;;;;;10.83;62.57;101764.47;5033597;27;102130;-54
2022/02/26 10:38:15;;;;;;;12.38;9.73;;;;;;;10.83;62.92;101769.91;5029450;28;102503;-56
2022/02/26 10:40:50;;;;;;;13.02;10.25;;;;;;;10.83;62.99;101772.63;5039187;27;102577;-54
2022/02/26 10:43:37;;;;;;;12.98;10.23;;;;;;;10.82;62.88;101762.81;5049352;27;103944;-55
2022/02/26 10:46:31;;;;;;;12.57;9.20;;;;;;;10.84;62.79;101765.28;5059906;27;102009;-54
2022/02/26 10:48:59;;;;;;;12.85;9.95;;;;;;;10.83;62.54;101772.63;4983735;27;103434;-54
2022/02/26 10:51:28;;;;;;;12.43;10.10;;;;;;;10.83;62.82;101763.63;5029527;27;102662;-54
2022/02/26 10:53:55;;;;;;;12.40;10.25;;;;;;;10.83;62.74;101764.47;5032594;27;103696;-54
2022/02/26 10:56:30;;;;;;;12.02;10.02;;;;;;;10.83;62.89;101763.63;5045201;27;102159;-55
2022/02/26 10:58:56;;;;;;;12.85;10.40;;;;;;;10.84;62.87;101762.56;5052889;27;102694;-54
2022/02/26 11:01:22;;;;;;;14.48;10.07;;;;;;;10.83;62.57;101763.63;5056260;27;102223;-54
2022/02/26 11:03:53;;;;;;;12.60;10.05;;;;;;;10.83;62.87;101753.56;5029110;27;104053;-54